sensor_id;sensor_type;location;lat;lon;timestamp;P1;durP1;ratioP1;P2;durP2;ratioP2
43670;SDS011;29267;50.906;7.248;2023-03-04T00:01:32;78.35;;;25.90;;
43670;SDS011;29267;50.906;7.248;2023-03-04T00:03:58;79.03;;;26.85;;
43670;SDS011;29267;50.906;7.248;2023-03-04T00:06:23;73.50;;;25.98;;
43670;SDS011;29267;50.906;7.248;2023-03-04T00:08:49;90.28;;;28.40;;
43670;SDS011;29267;50.906;7.248;2023-03-04T00:11:14;83.60;;;29.80;;
43670;SDS011;29267;50.906;7.248;2023-03-04T00:13:40;78.38;;;28.98;;
43670;SDS011;29267;50.906;7.248;2023-03-04T00:16:06;85.82;;;31.25;;
43670;SDS011;29267;50.906;7.248;2023-03-04T00:18:31;85.32;;;29.10;;
43670;SDS011;29267;50.906;7.248;2023-03-04T00:20:57;95.43;;;30.35;;
43670;SDS011;29267;50.906;7.248;2023-03-04T00:23:23;87.03;;;29.90;;
43670;SDS011;29267;50.906;7.248;2023-03-04T00:25:48;83.35;;;27.42;;
43670;SDS011;29267;50.906;7.248;2023-03-04T00:28:14;83.50;;;27.23;;
43670;SDS011;29267;50.906;7.248;2023-03-04T00:30:40;80.53;;;28.00;;
43670;SDS011;29267;50.906;7.248;2023-03-04T00:33:05;79.00;;;27.13;;
43670;SDS011;29267;50.906;7.248;2023-03-04T00:35:31;80.25;;;28.63;;
43670;SDS011;29267;50.906;7.248;2023-03-04T00:37:56;84.25;;;29.02;;
43670;SDS011;29267;50.906;7.248;2023-03-04T00:40:22;80.35;;;28.85;;
43670;SDS011;29267;50.906;7.248;2023-03-04T00:42:48;77.88;;;28.23;;
43670;SDS011;29267;50.906;7.248;2023-03-04T00:45:13;77.60;;;27.02;;
43670;SDS011;29267;50.906;7.248;2023-03-04T00:47:39;78.90;;;25.38;;
43670;SDS011;29267;50.906;7.248;2023-03-04T00:50:05;90.75;;;29.98;;
43670;SDS011;29267;50.906;7.248;2023-03-04T00:52:31;96.25;;;31.60;;
43670;SDS011;29267;50.906;7.248;2023-03-04T00:54:56;94.65;;;33.28;;
43670;SDS011;29267;50.906;7.248;2023-03-04T00:57:22;96.65;;;31.17;;
43670;SDS011;29267;50.906;7.248;2023-03-04T00:59:47;90.78;;;31.27;;
43670;SDS011;29267;50.906;7.248;2023-03-04T01:02:13;93.80;;;31.60;;
43670;SDS011;29267;50.906;7.248;2023-03-04T01:04:39;94.20;;;31.00;;
43670;SDS011;29267;50.906;7.248;2023-03-04T01:07:05;97.85;;;30.60;;
43670;SDS011;29267;50.906;7.248;2023-03-04T01:09:31;105.82;;;33.20;;
43670;SDS011;29267;50.906;7.248;2023-03-04T01:11:57;95.93;;;34.00;;
43670;SDS011;29267;50.906;7.248;2023-03-04T01:14:22;113.97;;;36.50;;
43670;SDS011;29267;50.906;7.248;2023-03-04T01:16:48;90.05;;;32.80;;
43670;SDS011;29267;50.906;7.248;2023-03-04T01:19:14;98.90;;;32.58;;
43670;SDS011;29267;50.906;7.248;2023-03-04T01:21:40;105.65;;;33.75;;
43670;SDS011;29267;50.906;7.248;2023-03-04T01:24:06;104.15;;;32.90;;
43670;SDS011;29267;50.906;7.248;2023-03-04T01:26:32;103.38;;;35.22;;
43670;SDS011;29267;50.906;7.248;2023-03-04T01:28:57;98.65;;;34.72;;
43670;SDS011;29267;50.906;7.248;2023-03-04T01:31:23;102.63;;;36.55;;
43670;SDS011;29267;50.906;7.248;2023-03-04T01:33:48;102.65;;;34.42;;
43670;SDS011;29267;50.906;7.248;2023-03-04T01:36:14;98.30;;;33.58;;
43670;SDS011;29267;50.906;7.248;2023-03-04T01:38:39;94.07;;;35.92;;
43670;SDS011;29267;50.906;7.248;2023-03-04T01:41:05;106.05;;;36.45;;
43670;SDS011;29267;50.906;7.248;2023-03-04T01:43:31;101.60;;;34.58;;
43670;SDS011;29267;50.906;7.248;2023-03-04T01:45:59;103.75;;;35.47;;
43670;SDS011;29267;50.906;7.248;2023-03-04T01:48:43;109.50;;;37.53;;
43670;SDS011;29267;50.906;7.248;2023-03-04T01:51:13;113.07;;;38.08;;
43670;SDS011;29267;50.906;7.248;2023-03-04T01:53:40;108.60;;;36.42;;
43670;SDS011;29267;50.906;7.248;2023-03-04T01:56:49;107.20;;;36.50;;
43670;SDS011;29267;50.906;7.248;2023-03-04T01:59:07;110.57;;;37.13;;
43670;SDS011;29267;50.906;7.248;2023-03-04T02:01:36;105.47;;;36.55;;
43670;SDS011;29267;50.906;7.248;2023-03-04T02:04:03;115.97;;;35.00;;
43670;SDS011;29267;50.906;7.248;2023-03-04T02:06:29;97.05;;;32.00;;
43670;SDS011;29267;50.906;7.248;2023-03-04T02:08:55;100.50;;;34.85;;
43670;SDS011;29267;50.906;7.248;2023-03-04T02:11:21;113.03;;;36.63;;
43670;SDS011;29267;50.906;7.248;2023-03-04T02:13:47;111.93;;;34.20;;
43670;SDS011;29267;50.906;7.248;2023-03-04T02:16:12;97.55;;;33.55;;
43670;SDS011;29267;50.906;7.248;2023-03-04T02:18:38;108.65;;;36.20;;
43670;SDS011;29267;50.906;7.248;2023-03-04T02:21:06;96.45;;;35.15;;
43670;SDS011;29267;50.906;7.248;2023-03-04T02:26:29;97.20;;;34.15;;
43670;SDS011;29267;50.906;7.248;2023-03-04T02:28:56;116.95;;;35.92;;
43670;SDS011;29267;50.906;7.248;2023-03-04T02:33:56;105.60;;;33.30;;
43670;SDS011;29267;50.906;7.248;2023-03-04T02:36:24;90.68;;;31.83;;
43670;SDS011;29267;50.906;7.248;2023-03-04T02:38:50;91.38;;;32.63;;
43670;SDS011;29267;50.906;7.248;2023-03-04T02:41:18;94.13;;;33.08;;
43670;SDS011;29267;50.906;7.248;2023-03-04T02:43:51;97.55;;;33.47;;
43670;SDS011;29267;50.906;7.248;2023-03-04T02:46:18;106.85;;;35.70;;
43670;SDS011;29267;50.906;7.248;2023-03-04T02:48:44;103.05;;;35.92;;
43670;SDS011;29267;50.906;7.248;2023-03-04T02:51:10;107.50;;;34.88;;
43670;SDS011;29267;50.906;7.248;2023-03-04T02:53:35;109.57;;;36.58;;
43670;SDS011;29267;50.906;7.248;2023-03-04T02:56:01;105.38;;;34.60;;
43670;SDS011;29267;50.906;7.248;2023-03-04T02:58:27;107.78;;;34.97;;
43670;SDS011;29267;50.906;7.248;2023-03-04T03:00:53;94.78;;;33.38;;
43670;SDS011;29267;50.906;7.248;2023-03-04T03:03:18;92.95;;;34.10;;
43670;SDS011;29267;50.906;7.248;2023-03-04T03:05:44;102.70;;;35.10;;
43670;SDS011;29267;50.906;7.248;2023-03-04T03:08:09;101.30;;;33.05;;
43670;SDS011;29267;50.906;7.248;2023-03-04T03:10:35;97.32;;;34.97;;
43670;SDS011;29267;50.906;7.248;2023-03-04T03:13:01;100.47;;;34.78;;
43670;SDS011;29267;50.906;7.248;2023-03-04T03:15:26;105.72;;;36.10;;
43670;SDS011;29267;50.906;7.248;2023-03-04T03:17:52;95.70;;;33.35;;
43670;SDS011;29267;50.906;7.248;2023-03-04T03:20:18;105.82;;;35.28;;
43670;SDS011;29267;50.906;7.248;2023-03-04T03:22:44;104.28;;;34.45;;
43670;SDS011;29267;50.906;7.248;2023-03-04T03:25:10;105.93;;;35.67;;
43670;SDS011;29267;50.906;7.248;2023-03-04T03:27:36;98.60;;;35.42;;
43670;SDS011;29267;50.906;7.248;2023-03-04T03:30:03;98.70;;;34.20;;
43670;SDS011;29267;50.906;7.248;2023-03-04T03:32:29;100.53;;;34.15;;
43670;SDS011;29267;50.906;7.248;2023-03-04T03:34:55;93.55;;;32.92;;
43670;SDS011;29267;50.906;7.248;2023-03-04T03:37:20;90.90;;;33.75;;
43670;SDS011;29267;50.906;7.248;2023-03-04T03:39:46;117.22;;;37.10;;
43670;SDS011;29267;50.906;7.248;2023-03-04T03:42:12;104.00;;;36.35;;
43670;SDS011;29267;50.906;7.248;2023-03-04T03:44:37;93.63;;;33.17;;
43670;SDS011;29267;50.906;7.248;2023-03-04T03:47:03;98.90;;;33.88;;
43670;SDS011;29267;50.906;7.248;2023-03-04T03:49:28;102.95;;;32.88;;
43670;SDS011;29267;50.906;7.248;2023-03-04T03:51:54;84.03;;;31.88;;
43670;SDS011;29267;50.906;7.248;2023-03-04T03:54:20;90.22;;;30.10;;
43670;SDS011;29267;50.906;7.248;2023-03-04T03:56:45;98.90;;;34.05;;
43670;SDS011;29267;50.906;7.248;2023-03-04T03:59:11;104.68;;;36.20;;
43670;SDS011;29267;50.906;7.248;2023-03-04T04:01:36;108.50;;;34.47;;
43670;SDS011;29267;50.906;7.248;2023-03-04T04:04:02;98.47;;;34.63;;
43670;SDS011;29267;50.906;7.248;2023-03-04T04:06:27;95.28;;;32.40;;
43670;SDS011;29267;50.906;7.248;2023-03-04T04:08:53;93.78;;;34.05;;
43670;SDS011;29267;50.906;7.248;2023-03-04T04:11:19;95.25;;;33.05;;
43670;SDS011;29267;50.906;7.248;2023-03-04T04:13:44;97.00;;;29.45;;
43670;SDS011;29267;50.906;7.248;2023-03-04T04:16:10;77.07;;;26.88;;
43670;SDS011;29267;50.906;7.248;2023-03-04T04:18:36;66.53;;;25.63;;
43670;SDS011;29267;50.906;7.248;2023-03-04T04:21:02;70.60;;;21.95;;
43670;SDS011;29267;50.906;7.248;2023-03-04T04:23:29;61.13;;;23.20;;
43670;SDS011;29267;50.906;7.248;2023-03-04T04:25:55;75.13;;;25.02;;
43670;SDS011;29267;50.906;7.248;2023-03-04T04:28:21;78.95;;;27.65;;
43670;SDS011;29267;50.906;7.248;2023-03-04T04:30:47;88.88;;;30.42;;
43670;SDS011;29267;50.906;7.248;2023-03-04T04:33:13;100.80;;;32.80;;
43670;SDS011;29267;50.906;7.248;2023-03-04T04:35:38;92.28;;;31.95;;
43670;SDS011;29267;50.906;7.248;2023-03-04T04:38:05;94.38;;;29.35;;
43670;SDS011;29267;50.906;7.248;2023-03-04T04:40:31;106.45;;;36.08;;
43670;SDS011;29267;50.906;7.248;2023-03-04T04:42:57;88.78;;;28.45;;
43670;SDS011;29267;50.906;7.248;2023-03-04T04:45:22;68.97;;;20.52;;
43670;SDS011;29267;50.906;7.248;2023-03-04T04:47:54;58.30;;;19.90;;
43670;SDS011;29267;50.906;7.248;2023-03-04T04:50:22;63.35;;;22.80;;
43670;SDS011;29267;50.906;7.248;2023-03-04T04:52:48;53.47;;;19.52;;
43670;SDS011;29267;50.906;7.248;2023-03-04T04:55:14;53.72;;;19.05;;
43670;SDS011;29267;50.906;7.248;2023-03-04T04:57:40;60.13;;;18.50;;
43670;SDS011;29267;50.906;7.248;2023-03-04T05:00:05;45.40;;;17.02;;
43670;SDS011;29267;50.906;7.248;2023-03-04T05:02:34;51.10;;;17.48;;
43670;SDS011;29267;50.906;7.248;2023-03-04T05:05:01;64.32;;;16.40;;
43670;SDS011;29267;50.906;7.248;2023-03-04T05:07:31;42.15;;;14.65;;
43670;SDS011;29267;50.906;7.248;2023-03-04T05:09:57;48.40;;;15.10;;
43670;SDS011;29267;50.906;7.248;2023-03-04T05:12:23;46.13;;;16.00;;
43670;SDS011;29267;50.906;7.248;2023-03-04T05:14:48;50.13;;;16.83;;
43670;SDS011;29267;50.906;7.248;2023-03-04T05:17:14;57.35;;;16.63;;
43670;SDS011;29267;50.906;7.248;2023-03-04T05:19:40;46.17;;;14.63;;
43670;SDS011;29267;50.906;7.248;2023-03-04T05:22:05;40.80;;;13.32;;
43670;SDS011;29267;50.906;7.248;2023-03-04T05:24:31;44.83;;;11.93;;
43670;SDS011;29267;50.906;7.248;2023-03-04T05:26:57;50.78;;;13.25;;
43670;SDS011;29267;50.906;7.248;2023-03-04T05:29:22;46.55;;;12.45;;
43670;SDS011;29267;50.906;7.248;2023-03-04T05:31:48;33.72;;;11.95;;
43670;SDS011;29267;50.906;7.248;2023-03-04T05:34:14;40.47;;;13.35;;
43670;SDS011;29267;50.906;7.248;2023-03-04T05:36:40;33.95;;;12.50;;
43670;SDS011;29267;50.906;7.248;2023-03-04T05:39:05;30.80;;;11.90;;
43670;SDS011;29267;50.906;7.248;2023-03-04T05:41:31;32.15;;;12.05;;
43670;SDS011;29267;50.906;7.248;2023-03-04T05:43:56;36.47;;;11.70;;
43670;SDS011;29267;50.906;7.248;2023-03-04T05:46:22;28.38;;;11.25;;
43670;SDS011;29267;50.906;7.248;2023-03-04T05:48:49;40.92;;;12.10;;
43670;SDS011;29267;50.906;7.248;2023-03-04T05:51:16;36.45;;;13.23;;
43670;SDS011;29267;50.906;7.248;2023-03-04T05:53:42;38.67;;;12.13;;
43670;SDS011;29267;50.906;7.248;2023-03-04T05:56:08;42.80;;;11.80;;
43670;SDS011;29267;50.906;7.248;2023-03-04T05:58:35;35.00;;;13.23;;
43670;SDS011;29267;50.906;7.248;2023-03-04T06:01:01;40.15;;;12.43;;
43670;SDS011;29267;50.906;7.248;2023-03-04T06:03:28;39.67;;;13.65;;
43670;SDS011;29267;50.906;7.248;2023-03-04T06:05:53;46.70;;;13.85;;
43670;SDS011;29267;50.906;7.248;2023-03-04T06:08:19;43.35;;;13.65;;
43670;SDS011;29267;50.906;7.248;2023-03-04T06:10:45;42.30;;;15.70;;
43670;SDS011;29267;50.906;7.248;2023-03-04T06:13:10;28.90;;;12.18;;
43670;SDS011;29267;50.906;7.248;2023-03-04T06:15:37;33.85;;;12.05;;
43670;SDS011;29267;50.906;7.248;2023-03-04T06:18:04;40.63;;;11.75;;
43670;SDS011;29267;50.906;7.248;2023-03-04T06:20:30;33.67;;;9.43;;
43670;SDS011;29267;50.906;7.248;2023-03-04T06:22:56;31.00;;;8.88;;
43670;SDS011;29267;50.906;7.248;2023-03-04T06:25:22;21.25;;;7.20;;
43670;SDS011;29267;50.906;7.248;2023-03-04T06:27:47;32.90;;;9.82;;
43670;SDS011;29267;50.906;7.248;2023-03-04T06:30:13;21.90;;;8.23;;
43670;SDS011;29267;50.906;7.248;2023-03-04T06:32:39;28.35;;;8.75;;
43670;SDS011;29267;50.906;7.248;2023-03-04T06:35:08;23.05;;;8.82;;
43670;SDS011;29267;50.906;7.248;2023-03-04T06:37:34;23.42;;;7.70;;
43670;SDS011;29267;50.906;7.248;2023-03-04T06:40:00;23.13;;;6.68;;
43670;SDS011;29267;50.906;7.248;2023-03-04T06:42:25;19.25;;;6.68;;
43670;SDS011;29267;50.906;7.248;2023-03-04T06:44:51;21.55;;;6.38;;
43670;SDS011;29267;50.906;7.248;2023-03-04T06:47:17;25.92;;;7.28;;
43670;SDS011;29267;50.906;7.248;2023-03-04T06:49:42;21.20;;;7.13;;
43670;SDS011;29267;50.906;7.248;2023-03-04T06:52:08;30.95;;;8.65;;
43670;SDS011;29267;50.906;7.248;2023-03-04T06:54:36;27.83;;;6.95;;
43670;SDS011;29267;50.906;7.248;2023-03-04T06:57:01;22.52;;;7.72;;
43670;SDS011;29267;50.906;7.248;2023-03-04T06:59:27;25.48;;;9.70;;
43670;SDS011;29267;50.906;7.248;2023-03-04T07:01:53;18.33;;;7.82;;
43670;SDS011;29267;50.906;7.248;2023-03-04T07:04:18;20.00;;;7.40;;
43670;SDS011;29267;50.906;7.248;2023-03-04T07:06:44;21.63;;;7.32;;
43670;SDS011;29267;50.906;7.248;2023-03-04T07:09:10;22.20;;;6.22;;
43670;SDS011;29267;50.906;7.248;2023-03-04T07:11:35;23.48;;;5.88;;
43670;SDS011;29267;50.906;7.248;2023-03-04T07:14:01;20.67;;;5.05;;
43670;SDS011;29267;50.906;7.248;2023-03-04T07:16:26;22.10;;;5.65;;
43670;SDS011;29267;50.906;7.248;2023-03-04T07:18:52;12.50;;;5.25;;
43670;SDS011;29267;50.906;7.248;2023-03-04T07:21:17;15.80;;;4.18;;
43670;SDS011;29267;50.906;7.248;2023-03-04T07:23:43;18.20;;;3.72;;
43670;SDS011;29267;50.906;7.248;2023-03-04T07:26:09;15.32;;;3.75;;
43670;SDS011;29267;50.906;7.248;2023-03-04T07:28:36;11.15;;;4.65;;
43670;SDS011;29267;50.906;7.248;2023-03-04T07:31:09;13.85;;;3.72;;
43670;SDS011;29267;50.906;7.248;2023-03-04T07:33:44;20.05;;;4.05;;
43670;SDS011;29267;50.906;7.248;2023-03-04T07:36:10;18.00;;;3.97;;
43670;SDS011;29267;50.906;7.248;2023-03-04T07:38:35;18.02;;;4.53;;
43670;SDS011;29267;50.906;7.248;2023-03-04T07:41:01;8.77;;;3.70;;
43670;SDS011;29267;50.906;7.248;2023-03-04T07:43:27;13.27;;;3.42;;
43670;SDS011;29267;50.906;7.248;2023-03-04T07:45:57;12.88;;;3.58;;
43670;SDS011;29267;50.906;7.248;2023-03-04T07:48:26;16.38;;;2.92;;
43670;SDS011;29267;50.906;7.248;2023-03-04T07:53:49;11.60;;;3.42;;
43670;SDS011;29267;50.906;7.248;2023-03-04T07:56:17;9.23;;;3.38;;
43670;SDS011;29267;50.906;7.248;2023-03-04T07:58:45;14.65;;;3.50;;
43670;SDS011;29267;50.906;7.248;2023-03-04T08:01:12;9.60;;;3.22;;
43670;SDS011;29267;50.906;7.248;2023-03-04T08:03:39;13.75;;;4.13;;
43670;SDS011;29267;50.906;7.248;2023-03-04T08:06:06;10.90;;;3.45;;
43670;SDS011;29267;50.906;7.248;2023-03-04T08:08:33;6.25;;;3.33;;
43670;SDS011;29267;50.906;7.248;2023-03-04T08:10:59;8.27;;;3.40;;
43670;SDS011;29267;50.906;7.248;2023-03-04T08:13:28;16.98;;;4.07;;
43670;SDS011;29267;50.906;7.248;2023-03-04T08:15:54;14.68;;;4.40;;
43670;SDS011;29267;50.906;7.248;2023-03-04T08:18:20;14.90;;;4.65;;
43670;SDS011;29267;50.906;7.248;2023-03-04T08:20:46;11.98;;;3.20;;
43670;SDS011;29267;50.906;7.248;2023-03-04T08:23:11;9.52;;;3.42;;
43670;SDS011;29267;50.906;7.248;2023-03-04T08:25:38;10.27;;;4.22;;
43670;SDS011;29267;50.906;7.248;2023-03-04T08:28:05;14.13;;;5.15;;
43670;SDS011;29267;50.906;7.248;2023-03-04T08:30:31;19.92;;;4.97;;
43670;SDS011;29267;50.906;7.248;2023-03-04T08:32:57;11.65;;;4.25;;
43670;SDS011;29267;50.906;7.248;2023-03-04T08:35:22;18.67;;;4.82;;
43670;SDS011;29267;50.906;7.248;2023-03-04T08:37:48;17.38;;;4.57;;
43670;SDS011;29267;50.906;7.248;2023-03-04T08:40:14;10.95;;;4.88;;
43670;SDS011;29267;50.906;7.248;2023-03-04T08:42:40;21.08;;;6.30;;
43670;SDS011;29267;50.906;7.248;2023-03-04T08:45:06;19.48;;;5.47;;
43670;SDS011;29267;50.906;7.248;2023-03-04T08:47:32;20.85;;;6.28;;
43670;SDS011;29267;50.906;7.248;2023-03-04T08:49:58;20.73;;;6.65;;
43670;SDS011;29267;50.906;7.248;2023-03-04T08:52:24;25.40;;;6.53;;
43670;SDS011;29267;50.906;7.248;2023-03-04T08:54:49;27.15;;;6.75;;
43670;SDS011;29267;50.906;7.248;2023-03-04T08:57:15;21.38;;;5.38;;
43670;SDS011;29267;50.906;7.248;2023-03-04T08:59:40;15.95;;;6.07;;
43670;SDS011;29267;50.906;7.248;2023-03-04T09:02:06;18.00;;;6.68;;
43670;SDS011;29267;50.906;7.248;2023-03-04T09:04:32;20.58;;;7.53;;
43670;SDS011;29267;50.906;7.248;2023-03-04T09:06:57;28.60;;;7.82;;
43670;SDS011;29267;50.906;7.248;2023-03-04T09:09:23;18.48;;;6.75;;
43670;SDS011;29267;50.906;7.248;2023-03-04T09:11:48;29.30;;;7.95;;
43670;SDS011;29267;50.906;7.248;2023-03-04T09:14:14;28.83;;;7.55;;
43670;SDS011;29267;50.906;7.248;2023-03-04T09:16:40;26.42;;;9.00;;
43670;SDS011;29267;50.906;7.248;2023-03-04T09:19:05;21.67;;;8.13;;
43670;SDS011;29267;50.906;7.248;2023-03-04T09:21:31;20.83;;;8.10;;
43670;SDS011;29267;50.906;7.248;2023-03-04T09:23:57;25.02;;;8.02;;
43670;SDS011;29267;50.906;7.248;2023-03-04T09:26:23;31.58;;;8.20;;
43670;SDS011;29267;50.906;7.248;2023-03-04T09:28:51;19.67;;;7.22;;
43670;SDS011;29267;50.906;7.248;2023-03-04T09:31:17;17.85;;;7.20;;
43670;SDS011;29267;50.906;7.248;2023-03-04T09:33:43;18.30;;;7.32;;
43670;SDS011;29267;50.906;7.248;2023-03-04T09:36:09;20.10;;;7.47;;
43670;SDS011;29267;50.906;7.248;2023-03-04T09:38:36;20.77;;;7.50;;
43670;SDS011;29267;50.906;7.248;2023-03-04T09:41:04;23.00;;;7.45;;
43670;SDS011;29267;50.906;7.248;2023-03-04T09:43:32;18.42;;;6.53;;
43670;SDS011;29267;50.906;7.248;2023-03-04T09:45:59;20.88;;;6.93;;
43670;SDS011;29267;50.906;7.248;2023-03-04T09:48:28;23.55;;;7.43;;
43670;SDS011;29267;50.906;7.248;2023-03-04T09:54:06;21.60;;;6.45;;
43670;SDS011;29267;50.906;7.248;2023-03-04T09:56:35;20.17;;;5.65;;
43670;SDS011;29267;50.906;7.248;2023-03-04T10:01:57;13.02;;;5.45;;
43670;SDS011;29267;50.906;7.248;2023-03-04T10:04:33;14.73;;;4.43;;
43670;SDS011;29267;50.906;7.248;2023-03-04T10:07:04;9.07;;;4.22;;
43670;SDS011;29267;50.906;7.248;2023-03-04T10:09:43;15.15;;;5.35;;
43670;SDS011;29267;50.906;7.248;2023-03-04T10:12:23;16.20;;;5.85;;
43670;SDS011;29267;50.906;7.248;2023-03-04T10:14:58;9.05;;;4.45;;
43670;SDS011;29267;50.906;7.248;2023-03-04T10:22:48;18.88;;;4.65;;
43670;SDS011;29267;50.906;7.248;2023-03-04T10:25:22;12.23;;;6.22;;
43670;SDS011;29267;50.906;7.248;2023-03-04T10:28:00;8.85;;;4.97;;
43670;SDS011;29267;50.906;7.248;2023-03-04T10:33:21;13.30;;;6.28;;
43670;SDS011;29267;50.906;7.248;2023-03-04T10:36:12;23.50;;;6.30;;
43670;SDS011;29267;50.906;7.248;2023-03-04T10:38:53;20.25;;;6.38;;
43670;SDS011;29267;50.906;7.248;2023-03-04T10:41:28;16.10;;;6.53;;
43670;SDS011;29267;50.906;7.248;2023-03-04T10:46:28;21.80;;;8.50;;
43670;SDS011;29267;50.906;7.248;2023-03-04T10:48:55;27.45;;;10.88;;
43670;SDS011;29267;50.906;7.248;2023-03-04T10:51:25;14.27;;;6.63;;
43670;SDS011;29267;50.906;7.248;2023-03-04T10:53:57;15.98;;;6.85;;
43670;SDS011;29267;50.906;7.248;2023-03-04T10:56:40;13.20;;;5.70;;
43670;SDS011;29267;50.906;7.248;2023-03-04T11:02:00;15.70;;;7.65;;
43670;SDS011;29267;50.906;7.248;2023-03-04T11:04:34;15.60;;;8.60;;
43670;SDS011;29267;50.906;7.248;2023-03-04T11:07:00;17.17;;;9.52;;
43670;SDS011;29267;50.906;7.248;2023-03-04T11:09:27;18.88;;;10.55;;
43670;SDS011;29267;50.906;7.248;2023-03-04T11:11:54;26.05;;;11.07;;
43670;SDS011;29267;50.906;7.248;2023-03-04T11:14:35;25.25;;;11.95;;
43670;SDS011;29267;50.906;7.248;2023-03-04T11:17:02;30.08;;;13.68;;
43670;SDS011;29267;50.906;7.248;2023-03-04T11:19:43;30.13;;;12.27;;
43670;SDS011;29267;50.906;7.248;2023-03-04T11:22:13;19.70;;;10.07;;
43670;SDS011;29267;50.906;7.248;2023-03-04T11:24:42;15.52;;;9.23;;
43670;SDS011;29267;50.906;7.248;2023-03-04T11:32:20;15.25;;;8.00;;
43670;SDS011;29267;50.906;7.248;2023-03-04T11:40:44;10.05;;;6.05;;
43670;SDS011;29267;50.906;7.248;2023-03-04T11:43:21;11.80;;;6.63;;
43670;SDS011;29267;50.906;7.248;2023-03-04T11:46:00;15.45;;;6.70;;
43670;SDS011;29267;50.906;7.248;2023-03-04T11:48:57;11.68;;;5.50;;
43670;SDS011;29267;50.906;7.248;2023-03-04T11:51:47;9.10;;;4.97;;
43670;SDS011;29267;50.906;7.248;2023-03-04T12:36:05;10.70;;;5.68;;
43670;SDS011;29267;50.906;7.248;2023-03-04T12:38:46;9.63;;;6.10;;
43670;SDS011;29267;50.906;7.248;2023-03-04T12:42:29;12.50;;;6.30;;
43670;SDS011;29267;50.906;7.248;2023-03-04T12:44:38;12.20;;;6.82;;
43670;SDS011;29267;50.906;7.248;2023-03-04T12:47:29;18.02;;;6.72;;
43670;SDS011;29267;50.906;7.248;2023-03-04T12:53:09;12.13;;;5.50;;
43670;SDS011;29267;50.906;7.248;2023-03-04T12:55:42;10.85;;;4.10;;
43670;SDS011;29267;50.906;7.248;2023-03-04T12:58:20;10.70;;;4.60;;
43670;SDS011;29267;50.906;7.248;2023-03-04T13:00:51;11.70;;;4.05;;
43670;SDS011;29267;50.906;7.248;2023-03-04T13:22:27;6.88;;;1.95;;
43670;SDS011;29267;50.906;7.248;2023-03-04T13:27:48;9.80;;;2.83;;
43670;SDS011;29267;50.906;7.248;2023-03-04T13:43:39;5.60;;;2.80;;
43670;SDS011;29267;50.906;7.248;2023-03-04T13:51:16;9.57;;;2.28;;
43670;SDS011;29267;50.906;7.248;2023-03-04T13:53:52;9.43;;;2.95;;
43670;SDS011;29267;50.906;7.248;2023-03-04T14:01:55;4.47;;;2.50;;
43670;SDS011;29267;50.906;7.248;2023-03-04T14:06:59;5.57;;;2.17;;
43670;SDS011;29267;50.906;7.248;2023-03-04T14:09:27;4.75;;;1.90;;
43670;SDS011;29267;50.906;7.248;2023-03-04T14:11:55;4.22;;;1.65;;
43670;SDS011;29267;50.906;7.248;2023-03-04T14:15:20;5.30;;;1.98;;
43670;SDS011;29267;50.906;7.248;2023-03-04T14:17:41;5.32;;;1.85;;
43670;SDS011;29267;50.906;7.248;2023-03-04T14:23:23;4.72;;;1.85;;
43670;SDS011;29267;50.906;7.248;2023-03-04T14:26:29;5.10;;;2.37;;
43670;SDS011;29267;50.906;7.248;2023-03-04T14:28:49;7.88;;;2.42;;
43670;SDS011;29267;50.906;7.248;2023-03-04T14:31:22;7.03;;;3.38;;
43670;SDS011;29267;50.906;7.248;2023-03-04T14:33:52;5.90;;;2.55;;
43670;SDS011;29267;50.906;7.248;2023-03-04T14:36:23;5.38;;;2.38;;
43670;SDS011;29267;50.906;7.248;2023-03-04T14:38:51;3.95;;;2.13;;
43670;SDS011;29267;50.906;7.248;2023-03-04T14:41:24;4.40;;;2.92;;
43670;SDS011;29267;50.906;7.248;2023-03-04T14:46:54;6.80;;;3.33;;
43670;SDS011;29267;50.906;7.248;2023-03-04T14:49:23;6.63;;;3.08;;
43670;SDS011;29267;50.906;7.248;2023-03-04T14:51:50;6.88;;;2.78;;
43670;SDS011;29267;50.906;7.248;2023-03-04T14:54:37;5.15;;;2.00;;
43670;SDS011;29267;50.906;7.248;2023-03-04T14:57:21;4.78;;;1.98;;
43670;SDS011;29267;50.906;7.248;2023-03-04T14:59:50;3.58;;;2.35;;
43670;SDS011;29267;50.906;7.248;2023-03-04T15:02:18;3.92;;;1.95;;
43670;SDS011;29267;50.906;7.248;2023-03-04T15:04:54;4.82;;;1.60;;
43670;SDS011;29267;50.906;7.248;2023-03-04T15:07:21;5.25;;;1.73;;
43670;SDS011;29267;50.906;7.248;2023-03-04T15:10:01;4.60;;;1.92;;
43670;SDS011;29267;50.906;7.248;2023-03-04T15:12:30;3.75;;;1.98;;
43670;SDS011;29267;50.906;7.248;2023-03-04T15:15:03;6.00;;;2.35;;
43670;SDS011;29267;50.906;7.248;2023-03-04T15:17:56;5.90;;;2.83;;
43670;SDS011;29267;50.906;7.248;2023-03-04T15:20:27;4.13;;;2.65;;
43670;SDS011;29267;50.906;7.248;2023-03-04T15:22:55;3.10;;;1.48;;
43670;SDS011;29267;50.906;7.248;2023-03-04T15:25:23;4.35;;;2.17;;
43670;SDS011;29267;50.906;7.248;2023-03-04T15:27:48;2.80;;;1.38;;
43670;SDS011;29267;50.906;7.248;2023-03-04T15:30:15;4.97;;;2.30;;
43670;SDS011;29267;50.906;7.248;2023-03-04T15:32:48;5.45;;;1.80;;
43670;SDS011;29267;50.906;7.248;2023-03-04T15:35:14;5.07;;;1.80;;
43670;SDS011;29267;50.906;7.248;2023-03-04T15:37:41;3.72;;;2.15;;
43670;SDS011;29267;50.906;7.248;2023-03-04T15:42:50;3.60;;;2.17;;
43670;SDS011;29267;50.906;7.248;2023-03-04T15:45:21;4.13;;;2.05;;
43670;SDS011;29267;50.906;7.248;2023-03-04T15:47:51;3.95;;;2.50;;
43670;SDS011;29267;50.906;7.248;2023-03-04T15:50:17;6.53;;;2.25;;
43670;SDS011;29267;50.906;7.248;2023-03-04T15:52:44;3.15;;;2.13;;
43670;SDS011;29267;50.906;7.248;2023-03-04T15:55:16;7.07;;;2.92;;
43670;SDS011;29267;50.906;7.248;2023-03-04T15:57:44;6.75;;;3.28;;
43670;SDS011;29267;50.906;7.248;2023-03-04T16:00:12;6.63;;;3.67;;
43670;SDS011;29267;50.906;7.248;2023-03-04T16:02:39;4.95;;;2.85;;
43670;SDS011;29267;50.906;7.248;2023-03-04T16:05:06;5.05;;;3.13;;
43670;SDS011;29267;50.906;7.248;2023-03-04T16:07:32;8.15;;;3.97;;
43670;SDS011;29267;50.906;7.248;2023-03-04T16:09:59;7.80;;;2.72;;
43670;SDS011;29267;50.906;7.248;2023-03-04T16:12:29;5.30;;;2.63;;
43670;SDS011;29267;50.906;7.248;2023-03-04T16:14:56;5.13;;;2.88;;
43670;SDS011;29267;50.906;7.248;2023-03-04T16:17:21;4.75;;;2.63;;
43670;SDS011;29267;50.906;7.248;2023-03-04T16:19:47;5.20;;;2.95;;
43670;SDS011;29267;50.906;7.248;2023-03-04T16:22:13;8.07;;;2.60;;
43670;SDS011;29267;50.906;7.248;2023-03-04T16:24:41;4.75;;;2.63;;
43670;SDS011;29267;50.906;7.248;2023-03-04T16:27:11;7.60;;;3.03;;
43670;SDS011;29267;50.906;7.248;2023-03-04T16:29:38;7.78;;;2.78;;
43670;SDS011;29267;50.906;7.248;2023-03-04T16:32:04;4.63;;;2.53;;
43670;SDS011;29267;50.906;7.248;2023-03-04T16:34:30;7.10;;;2.40;;
43670;SDS011;29267;50.906;7.248;2023-03-04T16:36:56;6.32;;;2.75;;
43670;SDS011;29267;50.906;7.248;2023-03-04T16:39:22;4.90;;;1.77;;
43670;SDS011;29267;50.906;7.248;2023-03-04T16:41:50;8.88;;;2.55;;
43670;SDS011;29267;50.906;7.248;2023-03-04T16:44:16;5.53;;;2.47;;
43670;SDS011;29267;50.906;7.248;2023-03-04T16:46:42;6.47;;;2.85;;
43670;SDS011;29267;50.906;7.248;2023-03-04T16:49:07;7.13;;;2.90;;
43670;SDS011;29267;50.906;7.248;2023-03-04T16:51:34;5.07;;;3.00;;
43670;SDS011;29267;50.906;7.248;2023-03-04T16:54:04;6.22;;;3.08;;
43670;SDS011;29267;50.906;7.248;2023-03-04T16:56:36;4.78;;;2.38;;
43670;SDS011;29267;50.906;7.248;2023-03-04T16:59:02;9.25;;;3.33;;